sensor_id;sensor_type;location;lat;lon;timestamp;temperature;humidity
56878;DHT22;42765;44.764;19.676;2022-08-21T00:54:52;18.80;99.90
56878;DHT22;42765;44.764;19.676;2022-08-21T00:57:27;20.80;99.90
56878;DHT22;42765;44.764;19.676;2022-08-21T00:59:56;20.80;99.90
56878;DHT22;42765;44.764;19.676;2022-08-21T01:02:22;20.80;99.90
56878;DHT22;42765;44.764;19.676;2022-08-21T01:04:48;20.80;99.90
56878;DHT22;42765;44.764;19.676;2022-08-21T01:07:15;20.80;99.90
56878;DHT22;42765;44.764;19.676;2022-08-21T01:09:41;20.80;99.90
56878;DHT22;42765;44.764;19.676;2022-08-21T01:12:07;20.90;99.90
56878;DHT22;42765;44.764;19.676;2022-08-21T01:14:34;20.90;99.90
56878;DHT22;42765;44.764;19.676;2022-08-21T01:17:01;20.70;99.90
56878;DHT22;42765;44.764;19.676;2022-08-21T01:19:29;20.60;99.90
56878;DHT22;42765;44.764;19.676;2022-08-21T01:21:56;20.50;99.90
56878;DHT22;42765;44.764;19.676;2022-08-21T01:24:22;20.50;99.90
56878;DHT22;42765;44.764;19.676;2022-08-21T02:06:14;20.50;99.90
56878;DHT22;42765;44.764;19.676;2022-08-21T02:08:40;20.30;99.90
56878;DHT22;42765;44.764;19.676;2022-08-21T02:11:06;20.30;99.90
56878;DHT22;42765;44.764;19.676;2022-08-21T02:13:32;20.30;99.90
56878;DHT22;42765;44.764;19.676;2022-08-21T02:15:58;20.30;99.90
56878;DHT22;42765;44.764;19.676;2022-08-21T02:18:23;20.40;99.90
56878;DHT22;42765;44.764;19.676;2022-08-21T02:20:50;20.40;99.90
56878;DHT22;42765;44.764;19.676;2022-08-21T02:23:15;20.40;99.90
56878;DHT22;42765;44.764;19.676;2022-08-21T02:25:41;20.50;99.90
56878;DHT22;42765;44.764;19.676;2022-08-21T02:28:11;20.40;99.90
56878;DHT22;42765;44.764;19.676;2022-08-21T02:30:39;20.40;99.90
56878;DHT22;42765;44.764;19.676;2022-08-21T02:33:05;20.40;99.90
56878;DHT22;42765;44.764;19.676;2022-08-21T02:35:31;20.40;99.90
56878;DHT22;42765;44.764;19.676;2022-08-21T02:37:59;20.40;99.90
56878;DHT22;42765;44.764;19.676;2022-08-21T02:40:26;20.40;99.90
56878;DHT22;42765;44.764;19.676;2022-08-21T02:42:53;20.30;99.90
56878;DHT22;42765;44.764;19.676;2022-08-21T02:45:19;20.40;99.90
56878;DHT22;42765;44.764;19.676;2022-08-21T02:47:51;20.40;99.90
56878;DHT22;42765;44.764;19.676;2022-08-21T02:50:19;20.40;99.90
56878;DHT22;42765;44.764;19.676;2022-08-21T02:52:45;20.40;99.90
56878;DHT22;42765;44.764;19.676;2022-08-21T02:55:11;20.40;99.90
56878;DHT22;42765;44.764;19.676;2022-08-21T02:57:39;20.40;99.90
56878;DHT22;42765;44.764;19.676;2022-08-21T03:00:05;20.50;99.90
56878;DHT22;42765;44.764;19.676;2022-08-21T03:02:32;20.50;99.90
56878;DHT22;42765;44.764;19.676;2022-08-21T03:04:58;20.60;99.90
56878;DHT22;42765;44.764;19.676;2022-08-21T03:07:23;20.60;99.90
56878;DHT22;42765;44.764;19.676;2022-08-21T03:09:49;20.60;99.90
56878;DHT22;42765;44.764;19.676;2022-08-21T03:12:15;20.60;99.90
56878;DHT22;42765;44.764;19.676;2022-08-21T03:14:40;20.60;99.90
56878;DHT22;42765;44.764;19.676;2022-08-21T03:19:32;20.60;99.90
56878;DHT22;42765;44.764;19.676;2022-08-21T03:21:58;20.80;99.90
56878;DHT22;42765;44.764;19.676;2022-08-21T03:24:24;20.80;99.90
56878;DHT22;42765;44.764;19.676;2022-08-21T03:26:50;20.90;99.90
56878;DHT22;42765;44.764;19.676;2022-08-21T03:29:23;20.90;99.90
56878;DHT22;42765;44.764;19.676;2022-08-21T03:31:52;21.00;99.90
56878;DHT22;42765;44.764;19.676;2022-08-21T03:34:20;21.00;99.90
56878;DHT22;42765;44.764;19.676;2022-08-21T03:36:45;21.10;99.90
56878;DHT22;42765;44.764;19.676;2022-08-21T03:39:11;21.00;99.90
56878;DHT22;42765;44.764;19.676;2022-08-21T03:41:37;21.00;99.90
56878;DHT22;42765;44.764;19.676;2022-08-21T03:44:03;21.00;99.90
56878;DHT22;42765;44.764;19.676;2022-08-21T03:46:29;21.00;99.90
56878;DHT22;42765;44.764;19.676;2022-08-21T03:48:54;21.00;99.90
56878;DHT22;42765;44.764;19.676;2022-08-21T03:51:21;21.00;99.90
56878;DHT22;42765;44.764;19.676;2022-08-21T03:53:47;21.10;99.90
56878;DHT22;42765;44.764;19.676;2022-08-21T03:56:13;21.00;99.90
56878;DHT22;42765;44.764;19.676;2022-08-21T03:58:41;20.90;99.90
56878;DHT22;42765;44.764;19.676;2022-08-21T04:01:07;21.00;99.90
56878;DHT22;42765;44.764;19.676;2022-08-21T04:03:34;21.00;99.90
56878;DHT22;42765;44.764;19.676;2022-08-21T04:06:00;21.00;99.90
56878;DHT22;42765;44.764;19.676;2022-08-21T04:10:52;21.10;99.90
56878;DHT22;42765;44.764;19.676;2022-08-21T04:13:19;21.30;99.90
56878;DHT22;42765;44.764;19.676;2022-08-21T04:15:45;21.40;99.90
56878;DHT22;42765;44.764;19.676;2022-08-21T04:27:55;21.50;99.90
56878;DHT22;42765;44.764;19.676;2022-08-21T04:30:21;21.60;99.90
56878;DHT22;42765;44.764;19.676;2022-08-21T04:32:48;21.70;99.90
56878;DHT22;42765;44.764;19.676;2022-08-21T04:35:15;21.60;99.90
56878;DHT22;42765;44.764;19.676;2022-08-21T04:37:41;21.70;99.90
56878;DHT22;42765;44.764;19.676;2022-08-21T04:40:07;21.60;99.90
56878;DHT22;42765;44.764;19.676;2022-08-21T04:42:40;21.70;99.90
56878;DHT22;42765;44.764;19.676;2022-08-21T04:45:06;21.80;99.90
56878;DHT22;42765;44.764;19.676;2022-08-21T04:47:32;21.90;99.90
56878;DHT22;42765;44.764;19.676;2022-08-21T04:49:58;21.90;99.90
56878;DHT22;42765;44.764;19.676;2022-08-21T04:52:23;21.90;99.90
56878;DHT22;42765;44.764;19.676;2022-08-21T04:54:50;21.90;99.90
56878;DHT22;42765;44.764;19.676;2022-08-21T04:57:17;22.00;99.90
56878;DHT22;42765;44.764;19.676;2022-08-21T04:59:44;21.90;99.90
56878;DHT22;42765;44.764;19.676;2022-08-21T05:02:11;21.70;99.90
56878;DHT22;42765;44.764;19.676;2022-08-21T05:04:39;21.50;99.90
56878;DHT22;42765;44.764;19.676;2022-08-21T05:07:10;21.60;99.90
56878;DHT22;42765;44.764;19.676;2022-08-21T05:09:37;21.70;99.90
56878;DHT22;42765;44.764;19.676;2022-08-21T05:12:03;21.80;99.90
56878;DHT22;42765;44.764;19.676;2022-08-21T05:14:29;21.90;99.90
56878;DHT22;42765;44.764;19.676;2022-08-21T05:16:55;22.10;99.90
56878;DHT22;42765;44.764;19.676;2022-08-21T05:19:21;22.00;99.90
56878;DHT22;42765;44.764;19.676;2022-08-21T05:21:47;22.10;99.90
56878;DHT22;42765;44.764;19.676;2022-08-21T05:24:13;22.00;99.90
56878;DHT22;42765;44.764;19.676;2022-08-21T05:26:39;22.10;99.90
56878;DHT22;42765;44.764;19.676;2022-08-21T05:29:05;22.00;99.90
56878;DHT22;42765;44.764;19.676;2022-08-21T05:31:31;22.00;99.90
56878;DHT22;42765;44.764;19.676;2022-08-21T05:33:57;21.90;99.90
56878;DHT22;42765;44.764;19.676;2022-08-21T05:36:22;21.80;99.90
56878;DHT22;42765;44.764;19.676;2022-08-21T05:38:48;21.80;99.90
56878;DHT22;42765;44.764;19.676;2022-08-21T05:58:18;21.70;99.90
56878;DHT22;42765;44.764;19.676;2022-08-21T06:00:44;20.70;99.90
56878;DHT22;42765;44.764;19.676;2022-08-21T06:03:13;20.60;99.90
56878;DHT22;42765;44.764;19.676;2022-08-21T06:05:39;20.50;99.90
56878;DHT22;42765;44.764;19.676;2022-08-21T06:08:05;20.40;99.90
56878;DHT22;42765;44.764;19.676;2022-08-21T06:10:31;20.40;99.90
56878;DHT22;42765;44.764;19.676;2022-08-21T06:12:57;20.40;99.90
56878;DHT22;42765;44.764;19.676;2022-08-21T06:15:22;20.30;99.90
56878;DHT22;42765;44.764;19.676;2022-08-21T06:17:48;20.30;99.90
56878;DHT22;42765;44.764;19.676;2022-08-21T06:20:14;20.20;99.90
56878;DHT22;42765;44.764;19.676;2022-08-21T06:22:40;20.40;99.90
56878;DHT22;42765;44.764;19.676;2022-08-21T06:25:05;20.30;99.90
56878;DHT22;42765;44.764;19.676;2022-08-21T07:04:05;20.20;99.90
56878;DHT22;42765;44.764;19.676;2022-08-21T07:06:30;20.40;99.90
56878;DHT22;42765;44.764;19.676;2022-08-21T07:08:56;20.40;99.90
56878;DHT22;42765;44.764;19.676;2022-08-21T07:11:23;20.40;99.90
56878;DHT22;42765;44.764;19.676;2022-08-21T07:13:49;20.30;99.90
56878;DHT22;42765;44.764;19.676;2022-08-21T07:16:17;20.30;99.90
56878;DHT22;42765;44.764;19.676;2022-08-21T07:18:43;20.40;99.90
56878;DHT22;42765;44.764;19.676;2022-08-21T07:21:09;20.40;99.90
56878;DHT22;42765;44.764;19.676;2022-08-21T07:23:36;20.40;99.90
56878;DHT22;42765;44.764;19.676;2022-08-21T07:26:03;20.50;99.90
56878;DHT22;42765;44.764;19.676;2022-08-21T07:28:29;20.60;99.90
56878;DHT22;42765;44.764;19.676;2022-08-21T07:30:56;20.70;99.90
56878;DHT22;42765;44.764;19.676;2022-08-21T07:33:23;20.60;99.90
56878;DHT22;42765;44.764;19.676;2022-08-21T07:35:48;20.60;99.90
56878;DHT22;42765;44.764;19.676;2022-08-21T07:38:14;20.50;99.90
56878;DHT22;42765;44.764;19.676;2022-08-21T07:40:40;20.50;99.90
56878;DHT22;42765;44.764;19.676;2022-08-21T07:43:06;20.50;99.90
56878;DHT22;42765;44.764;19.676;2022-08-21T07:45:32;20.20;99.90
56878;DHT22;42765;44.764;19.676;2022-08-21T07:47:57;20.10;99.90
56878;DHT22;42765;44.764;19.676;2022-08-21T07:50:23;20.10;99.90
56878;DHT22;42765;44.764;19.676;2022-08-21T07:55:16;20.00;99.90
56878;DHT22;42765;44.764;19.676;2022-08-21T07:57:43;19.90;99.90
56878;DHT22;42765;44.764;19.676;2022-08-21T08:00:13;20.00;99.90
56878;DHT22;42765;44.764;19.676;2022-08-21T08:02:39;20.00;99.90
56878;DHT22;42765;44.764;19.676;2022-08-21T08:05:09;20.00;99.90
56878;DHT22;42765;44.764;19.676;2022-08-21T08:07:35;20.10;99.90
56878;DHT22;42765;44.764;19.676;2022-08-21T08:10:01;20.00;99.90
56878;DHT22;42765;44.764;19.676;2022-08-21T08:12:26;19.90;99.90
56878;DHT22;42765;44.764;19.676;2022-08-21T08:14:58;19.90;99.90
56878;DHT22;42765;44.764;19.676;2022-08-21T08:17:24;19.90;99.90
56878;DHT22;42765;44.764;19.676;2022-08-21T08:19:51;19.90;99.90
56878;DHT22;42765;44.764;19.676;2022-08-21T08:22:19;19.90;99.90
56878;DHT22;42765;44.764;19.676;2022-08-21T08:24:45;20.00;99.90
56878;DHT22;42765;44.764;19.676;2022-08-21T08:27:11;20.00;99.90
56878;DHT22;42765;44.764;19.676;2022-08-21T08:29:38;20.10;99.90
56878;DHT22;42765;44.764;19.676;2022-08-21T08:54:04;20.20;99.90
56878;DHT22;42765;44.764;19.676;2022-08-21T08:56:32;20.20;99.90
56878;DHT22;42765;44.764;19.676;2022-08-21T08:59:20;20.20;99.90
56878;DHT22;42765;44.764;19.676;2022-08-21T09:01:44;20.30;99.90
56878;DHT22;42765;44.764;19.676;2022-08-21T09:04:10;20.20;99.90
56878;DHT22;42765;44.764;19.676;2022-08-21T09:06:45;20.20;99.90
56878;DHT22;42765;44.764;19.676;2022-08-21T09:29:33;20.00;99.90
56878;DHT22;42765;44.764;19.676;2022-08-21T09:31:59;20.00;99.90
56878;DHT22;42765;44.764;19.676;2022-08-21T09:44:09;20.00;99.90
56878;DHT22;42765;44.764;19.676;2022-08-21T09:46:35;20.10;99.90
56878;DHT22;42765;44.764;19.676;2022-08-21T09:49:02;20.10;99.90
56878;DHT22;42765;44.764;19.676;2022-08-21T09:51:29;20.20;99.90
56878;DHT22;42765;44.764;19.676;2022-08-21T09:56:38;20.50;99.90
56878;DHT22;42765;44.764;19.676;2022-08-21T09:59:27;20.40;99.90
56878;DHT22;42765;44.764;19.676;2022-08-21T10:01:56;20.50;99.90
56878;DHT22;42765;44.764;19.676;2022-08-21T10:04:24;20.70;99.90
56878;DHT22;42765;44.764;19.676;2022-08-21T10:43:57;21.00;99.90
56878;DHT22;42765;44.764;19.676;2022-08-21T10:46:36;20.80;99.90
56878;DHT22;42765;44.764;19.676;2022-08-21T10:49:14;20.70;99.90
56878;DHT22;42765;44.764;19.676;2022-08-21T10:51:48;20.60;99.90
56878;DHT22;42765;44.764;19.676;2022-08-21T10:54:19;20.50;99.90
56878;DHT22;42765;44.764;19.676;2022-08-21T10:56:47;20.50;99.90
56878;DHT22;42765;44.764;19.676;2022-08-21T11:04:32;20.60;99.90
56878;DHT22;42765;44.764;19.676;2022-08-21T11:07:02;20.50;99.90
56878;DHT22;42765;44.764;19.676;2022-08-21T11:09:28;20.60;99.90
56878;DHT22;42765;44.764;19.676;2022-08-21T11:11:56;20.80;99.90
56878;DHT22;42765;44.764;19.676;2022-08-21T11:14:41;21.00;99.90
56878;DHT22;42765;44.764;19.676;2022-08-21T11:17:13;21.20;99.90
56878;DHT22;42765;44.764;19.676;2022-08-21T11:22:13;21.00;99.90
56878;DHT22;42765;44.764;19.676;2022-08-21T11:49:06;20.60;99.90
56878;DHT22;42765;44.764;19.676;2022-08-21T11:54:07;20.70;99.90
56878;DHT22;42765;44.764;19.676;2022-08-21T11:56:37;20.60;99.90
56878;DHT22;42765;44.764;19.676;2022-08-21T11:59:16;20.60;99.90
56878;DHT22;42765;44.764;19.676;2022-08-21T12:01:45;20.50;99.90
56878;DHT22;42765;44.764;19.676;2022-08-21T12:04:31;20.50;99.90
56878;DHT22;42765;44.764;19.676;2022-08-21T12:07:10;20.50;99.90
56878;DHT22;42765;44.764;19.676;2022-08-21T12:09:36;20.50;99.90
56878;DHT22;42765;44.764;19.676;2022-08-21T12:14:37;20.50;99.90
56878;DHT22;42765;44.764;19.676;2022-08-21T12:17:05;20.40;99.90
56878;DHT22;42765;44.764;19.676;2022-08-21T12:19:31;20.40;99.90
56878;DHT22;42765;44.764;19.676;2022-08-21T12:26:58;20.50;99.90
56878;DHT22;42765;44.764;19.676;2022-08-21T12:29:25;20.50;99.90
56878;DHT22;42765;44.764;19.676;2022-08-21T12:31:57;20.50;99.90
56878;DHT22;42765;44.764;19.676;2022-08-21T12:34:24;20.50;99.90
56878;DHT22;42765;44.764;19.676;2022-08-21T12:36:54;20.50;99.90
56878;DHT22;42765;44.764;19.676;2022-08-21T12:39:23;20.50;99.90
56878;DHT22;42765;44.764;19.676;2022-08-21T12:41:51;20.50;99.90
56878;DHT22;42765;44.764;19.676;2022-08-21T12:45:02;20.50;99.90
56878;DHT22;42765;44.764;19.676;2022-08-21T12:50:04;20.50;99.90
56878;DHT22;42765;44.764;19.676;2022-08-21T12:52:33;20.50;99.90
56878;DHT22;42765;44.764;19.676;2022-08-21T12:54:59;20.50;99.90
56878;DHT22;42765;44.764;19.676;2022-08-21T12:57:26;20.50;99.90
56878;DHT22;42765;44.764;19.676;2022-08-21T12:59:59;20.50;99.90
56878;DHT22;42765;44.764;19.676;2022-08-21T13:02:30;20.60;99.90
56878;DHT22;42765;44.764;19.676;2022-08-21T13:04:56;20.70;99.90
56878;DHT22;42765;44.764;19.676;2022-08-21T13:07:27;20.70;99.90
56878;DHT22;42765;44.764;19.676;2022-08-21T13:10:05;20.80;99.90
56878;DHT22;42765;44.764;19.676;2022-08-21T13:12:31;21.00;99.90
56878;DHT22;42765;44.764;19.676;2022-08-21T13:14:58;21.30;99.90
56878;DHT22;42765;44.764;19.676;2022-08-21T13:17:25;21.40;99.90
56878;DHT22;42765;44.764;19.676;2022-08-21T13:22:17;21.30;99.90
56878;DHT22;42765;44.764;19.676;2022-08-21T13:24:46;21.20;99.90
56878;DHT22;42765;44.764;19.676;2022-08-21T13:27:16;21.30;99.90
56878;DHT22;42765;44.764;19.676;2022-08-21T13:29:42;21.20;99.90
56878;DHT22;42765;44.764;19.676;2022-08-21T13:32:13;21.20;99.90
56878;DHT22;42765;44.764;19.676;2022-08-21T13:34:43;21.20;99.90
56878;DHT22;42765;44.764;19.676;2022-08-21T13:37:08;21.20;99.90
56878;DHT22;42765;44.764;19.676;2022-08-21T13:39:36;21.20;99.90
56878;DHT22;42765;44.764;19.676;2022-08-21T13:44:34;21.20;99.90
56878;DHT22;42765;44.764;19.676;2022-08-21T13:47:00;21.40;99.90
56878;DHT22;42765;44.764;19.676;2022-08-21T13:49:29;21.60;99.90
56878;DHT22;42765;44.764;19.676;2022-08-21T13:51:55;21.70;99.90
56878;DHT22;42765;44.764;19.676;2022-08-21T13:54:26;21.70;99.90
56878;DHT22;42765;44.764;19.676;2022-08-21T13:56:52;21.70;99.90
56878;DHT22;42765;44.764;19.676;2022-08-21T13:59:25;21.60;99.90
56878;DHT22;42765;44.764;19.676;2022-08-21T14:01:56;21.50;99.90
56878;DHT22;42765;44.764;19.676;2022-08-21T14:04:36;21.40;99.90
56878;DHT22;42765;44.764;19.676;2022-08-21T14:07:02;21.30;99.90
56878;DHT22;42765;44.764;19.676;2022-08-21T14:09:41;21.40;99.90
56878;DHT22;42765;44.764;19.676;2022-08-21T14:12:19;21.40;99.90
56878;DHT22;42765;44.764;19.676;2022-08-21T14:14:48;21.60;99.90
56878;DHT22;42765;44.764;19.676;2022-08-21T14:17:24;21.60;99.90
56878;DHT22;42765;44.764;19.676;2022-08-21T14:19:51;21.80;99.90
56878;DHT22;42765;44.764;19.676;2022-08-21T14:27:21;21.90;99.90
56878;DHT22;42765;44.764;19.676;2022-08-21T14:29:48;21.80;99.90
56878;DHT22;42765;44.764;19.676;2022-08-21T14:32:15;21.80;99.90
56878;DHT22;42765;44.764;19.676;2022-08-21T14:34:44;21.90;99.90
56878;DHT22;42765;44.764;19.676;2022-08-21T14:37:10;22.00;99.90
56878;DHT22;42765;44.764;19.676;2022-08-21T14:42:02;22.00;99.90
56878;DHT22;42765;44.764;19.676;2022-08-21T14:44:27;21.80;99.90
56878;DHT22;42765;44.764;19.676;2022-08-21T14:46:53;21.70;99.90
56878;DHT22;42765;44.764;19.676;2022-08-21T14:49:19;21.50;99.90
56878;DHT22;42765;44.764;19.676;2022-08-21T14:54:11;21.40;99.90
56878;DHT22;42765;44.764;19.676;2022-08-21T14:56:37;21.20;99.90
56878;DHT22;42765;44.764;19.676;2022-08-21T14:59:04;21.10;99.90
56878;DHT22;42765;44.764;19.676;2022-08-21T15:23:23;21.10;99.90
56878;DHT22;42765;44.764;19.676;2022-08-21T15:25:49;21.10;99.90
56878;DHT22;42765;44.764;19.676;2022-08-21T15:28:15;21.00;99.90
56878;DHT22;42765;44.764;19.676;2022-08-21T15:30:42;21.00;99.90
56878;DHT22;42765;44.764;19.676;2022-08-21T15:33:08;21.00;99.90
56878;DHT22;42765;44.764;19.676;2022-08-21T15:35:34;21.00;99.90
56878;DHT22;42765;44.764;19.676;2022-08-21T15:38:00;21.10;99.90
56878;DHT22;42765;44.764;19.676;2022-08-21T15:40:26;21.10;99.90
56878;DHT22;42765;44.764;19.676;2022-08-21T15:42:52;21.10;99.90
56878;DHT22;42765;44.764;19.676;2022-08-21T15:45:20;21.10;99.90
56878;DHT22;42765;44.764;19.676;2022-08-21T15:47:46;21.10;99.90
56878;DHT22;42765;44.764;19.676;2022-08-21T15:50:14;21.10;99.90
56878;DHT22;42765;44.764;19.676;2022-08-21T15:52:39;21.10;99.90
56878;DHT22;42765;44.764;19.676;2022-08-21T15:55:05;21.20;99.90
56878;DHT22;42765;44.764;19.676;2022-08-21T15:57:31;21.20;99.90
56878;DHT22;42765;44.764;19.676;2022-08-21T15:59:58;21.30;99.90
56878;DHT22;42765;44.764;19.676;2022-08-21T16:02:29;21.30;99.90
56878;DHT22;42765;44.764;19.676;2022-08-21T16:04:56;21.20;99.90
56878;DHT22;42765;44.764;19.676;2022-08-21T16:07:22;21.20;99.90
56878;DHT22;42765;44.764;19.676;2022-08-21T16:09:47;21.20;99.90
56878;DHT22;42765;44.764;19.676;2022-08-21T16:12:28;21.20;99.90
56878;DHT22;42765;44.764;19.676;2022-08-21T16:14:56;21.20;99.90
56878;DHT22;42765;44.764;19.676;2022-08-21T16:17:29;21.20;99.90
56878;DHT22;42765;44.764;19.676;2022-08-21T16:19:55;21.20;99.90
56878;DHT22;42765;44.764;19.676;2022-08-21T16:22:21;21.20;99.90
56878;DHT22;42765;44.764;19.676;2022-08-21T16:24:47;21.20;99.90
56878;DHT22;42765;44.764;19.676;2022-08-21T16:27:12;21.20;99.90
56878;DHT22;42765;44.764;19.676;2022-08-21T16:29:38;21.20;99.90
56878;DHT22;42765;44.764;19.676;2022-08-21T16:46:41;21.30;99.90
56878;DHT22;42765;44.764;19.676;2022-08-21T16:49:07;21.20;99.90
56878;DHT22;42765;44.764;19.676;2022-08-21T16:51:34;21.10;99.90
56878;DHT22;42765;44.764;19.676;2022-08-21T16:54:01;21.00;99.90
56878;DHT22;42765;44.764;19.676;2022-08-21T16:56:27;21.00;99.90
56878;DHT22;42765;44.764;19.676;2022-08-21T16:58:53;21.00;99.90
56878;DHT22;42765;44.764;19.676;2022-08-21T17:01:21;20.90;99.90
56878;DHT22;42765;44.764;19.676;2022-08-21T17:03:49;20.90;99.90
56878;DHT22;42765;44.764;19.676;2022-08-21T17:06:15;20.90;99.90
56878;DHT22;42765;44.764;19.676;2022-08-21T17:08:41;20.80;99.90
56878;DHT22;42765;44.764;19.676;2022-08-21T17:40:25;20.80;99.90
56878;DHT22;42765;44.764;19.676;2022-08-21T17:42:50;20.70;99.90
56878;DHT22;42765;44.764;19.676;2022-08-21T17:45:17;20.70;99.90
56878;DHT22;42765;44.764;19.676;2022-08-21T17:47:44;20.60;99.90
56878;DHT22;42765;44.764;19.676;2022-08-21T17:50:10;20.70;99.90
56878;DHT22;42765;44.764;19.676;2022-08-21T17:52:39;20.70;99.90
56878;DHT22;42765;44.764;19.676;2022-08-21T17:55:11;20.70;99.90
56878;DHT22;42765;44.764;19.676;2022-08-21T17:57:37;20.70;99.90
56878;DHT22;42765;44.764;19.676;2022-08-21T18:00:07;20.70;99.90
56878;DHT22;42765;44.764;19.676;2022-08-21T18:02:34;20.30;99.90
56878;DHT22;42765;44.764;19.676;2022-08-21T18:05:00;20.70;99.90
56878;DHT22;42765;44.764;19.676;2022-08-21T18:07:26;20.70;99.90
56878;DHT22;42765;44.764;19.676;2022-08-21T18:09:52;20.70;99.90
56878;DHT22;42765;44.764;19.676;2022-08-21T18:12:17;20.70;99.90
56878;DHT22;42765;44.764;19.676;2022-08-21T18:14:43;20.70;99.90
56878;DHT22;42765;44.764;19.676;2022-08-21T18:17:10;20.70;99.90
56878;DHT22;42765;44.764;19.676;2022-08-21T18:19:37;20.60;99.90
56878;DHT22;42765;44.764;19.676;2022-08-21T18:22:03;20.50;99.90
56878;DHT22;42765;44.764;19.676;2022-08-21T18:24:33;20.50;99.90
56878;DHT22;42765;44.764;19.676;2022-08-21T18:26:58;20.50;99.90
56878;DHT22;42765;44.764;19.676;2022-08-21T18:29:24;20.50;99.90
56878;DHT22;42765;44.764;19.676;2022-08-21T18:31:50;20.60;99.90
56878;DHT22;42765;44.764;19.676;2022-08-21T18:34:27;20.70;99.90
56878;DHT22;42765;44.764;19.676;2022-08-21T18:36:53;20.80;99.90
56878;DHT22;42765;44.764;19.676;2022-08-21T18:39:20;20.90;99.90
56878;DHT22;42765;44.764;19.676;2022-08-21T18:41:46;21.10;99.90
56878;DHT22;42765;44.764;19.676;2022-08-21T18:44:12;20.90;99.90
56878;DHT22;42765;44.764;19.676;2022-08-21T18:46:38;20.60;99.90
56878;DHT22;42765;44.764;19.676;2022-08-21T18:49:04;20.60;99.90
56878;DHT22;42765;44.764;19.676;2022-08-21T18:51:31;20.60;99.90
56878;DHT22;42765;44.764;19.676;2022-08-21T18:53:57;20.70;99.90
56878;DHT22;42765;44.764;19.676;2022-08-21T18:56:23;20.60;99.90
56878;DHT22;42765;44.764;19.676;2022-08-21T18:58:48;20.60;99.90
56878;DHT22;42765;44.764;19.676;2022-08-21T19:01:15;20.60;99.90
56878;DHT22;42765;44.764;19.676;2022-08-21T19:03:40;20.50;99.90
56878;DHT22;42765;44.764;19.676;2022-08-21T19:06:06;20.50;99.90
56878;DHT22;42765;44.764;19.676;2022-08-21T19:08:32;20.50;99.90
56878;DHT22;42765;44.764;19.676;2022-08-21T19:10:58;20.50;99.90
56878;DHT22;42765;44.764;19.676;2022-08-21T19:13:26;20.40;99.90
56878;DHT22;42765;44.764;19.676;2022-08-21T19:15:53;20.30;99.90
56878;DHT22;42765;44.764;19.676;2022-08-21T19:18:20;20.30;99.90
56878;DHT22;42765;44.764;19.676;2022-08-21T19:20:48;20.30;99.90
56878;DHT22;42765;44.764;19.676;2022-08-21T19:23:14;20.30;99.90
56878;DHT22;42765;44.764;19.676;2022-08-21T19:25:41;20.40;99.90
56878;DHT22;42765;44.764;19.676;2022-08-21T19:28:08;20.60;99.90
56878;DHT22;42765;44.764;19.676;2022-08-21T19:30:39;20.40;99.90
56878;DHT22;42765;44.764;19.676;2022-08-21T19:33:06;20.40;99.90
56878;DHT22;42765;44.764;19.676;2022-08-21T19:35:32;20.40;99.90
56878;DHT22;42765;44.764;19.676;2022-08-21T19:37:58;20.40;99.90
56878;DHT22;42765;44.764;19.676;2022-08-21T19:40:24;20.30;99.90
56878;DHT22;42765;44.764;19.676;2022-08-21T19:42:49;20.30;99.90
56878;DHT22;42765;44.764;19.676;2022-08-21T19:45:15;20.20;99.90
56878;DHT22;42765;44.764;19.676;2022-08-21T19:47:41;20.10;99.90
56878;DHT22;42765;44.764;19.676;2022-08-21T19:52:35;20.10;99.90
56878;DHT22;42765;44.764;19.676;2022-08-21T19:55:00;20.00;99.90
56878;DHT22;42765;44.764;19.676;2022-08-21T19:59:52;20.00;99.90
56878;DHT22;42765;44.764;19.676;2022-08-21T20:02:18;19.90;99.90
56878;DHT22;42765;44.764;19.676;2022-08-21T21:27:36;19.40;99.90
56878;DHT22;42765;44.764;19.676;2022-08-21T21:32:32;19.50;99.90
56878;DHT22;42765;44.764;19.676;2022-08-21T21:34:58;19.40;99.90
56878;DHT22;42765;44.764;19.676;2022-08-21T21:38:10;19.50;99.90
56878;DHT22;42765;44.764;19.676;2022-08-21T21:43:01;19.50;99.90
56878;DHT22;42765;44.764;19.676;2022-08-21T21:45:31;19.50;99.90
56878;DHT22;42765;44.764;19.676;2022-08-21T21:48:05;19.50;99.90
56878;DHT22;42765;44.764;19.676;2022-08-21T21:55:31;19.50;99.90
56878;DHT22;42765;44.764;19.676;2022-08-21T22:00:27;19.40;99.90
56878;DHT22;42765;44.764;19.676;2022-08-21T22:03:09;19.40;99.90
56878;DHT22;42765;44.764;19.676;2022-08-21T22:05:43;19.50;99.90
56878;DHT22;42765;44.764;19.676;2022-08-21T22:08:56;19.40;99.90
56878;DHT22;42765;44.764;19.676;2022-08-21T22:50:03;19.40;99.90
56878;DHT22;42765;44.764;19.676;2022-08-21T22:52:33;19.40;99.90
56878;DHT22;42765;44.764;19.676;2022-08-21T22:55:01;19.40;99.90
56878;DHT22;42765;44.764;19.676;2022-08-21T22:57:30;19.30;99.90
56878;DHT22;42765;44.764;19.676;2022-08-21T23:04:51;19.40;99.90
56878;DHT22;42765;44.764;19.676;2022-08-21T23:07:32;19.30;99.90
56878;DHT22;42765;44.764;19.676;2022-08-21T23:09:58;19.40;99.90
56878;DHT22;42765;44.764;19.676;2022-08-21T23:12:28;19.30;99.90
56878;DHT22;42765;44.764;19.676;2022-08-21T23:14:55;19.30;99.90
56878;DHT22;42765;44.764;19.676;2022-08-21T23:18:08;19.40;99.90
56878;DHT22;42765;44.764;19.676;2022-08-21T23:22:45;19.40;99.90
56878;DHT22;42765;44.764;19.676;2022-08-21T23:30:54;19.30;99.90
56878;DHT22;42765;44.764;19.676;2022-08-21T23:41:14;19.30;99.90
56878;DHT22;42765;44.764;19.676;2022-08-21T23:51:36;19.40;99.90
